createdAt,value
2022-12-12T00:04:06.478Z,4.68
2022-12-12T00:09:09.855Z,5.60
2022-12-12T00:14:12.180Z,3.45
2022-12-12T00:19:14.506Z,6.07
2022-12-12T00:24:16.687Z,5.68
2022-12-12T00:29:18.929Z,5.35
2022-12-12T00:34:20.954Z,6.38
2022-12-12T00:39:24.075Z,5.07
2022-12-12T00:44:26.307Z,7.80
2022-12-12T00:49:28.379Z,6.00
2022-12-12T00:54:30.603Z,2.97
2022-12-12T00:59:32.815Z,4.43
2022-12-12T01:04:35.234Z,10.52
2022-12-12T01:09:38.746Z,11.65
2022-12-12T01:14:41.497Z,6.38
2022-12-12T01:19:43.715Z,5.57
2022-12-12T01:24:46.056Z,6.60
2022-12-12T01:29:48.234Z,6.78
2022-12-12T01:34:50.353Z,7.07
2022-12-12T01:39:52.561Z,7.20
2022-12-12T01:44:54.876Z,7.85
2022-12-12T01:50:04.290Z,8.13
2022-12-12T01:55:11.437Z,11.05
2022-12-12T02:00:14.448Z,8.90
2022-12-12T02:05:25.621Z,11.90
2022-12-12T02:10:27.967Z,10.88
2022-12-12T02:15:40.162Z,13.50
2022-12-12T02:21:05.515Z,14.10
2022-12-12T02:26:41.539Z,11.50
2022-12-12T02:32:22.095Z,10.02
2022-12-12T02:37:32.019Z,8.67
2022-12-12T02:43:02.125Z,8.98
2022-12-12T02:48:09.679Z,9.15
2022-12-12T02:53:12.078Z,7.97
2022-12-12T02:58:14.666Z,7.43
2022-12-12T03:04:02.781Z,8.07
2022-12-12T03:09:28.341Z,8.32
2022-12-12T03:14:59.886Z,8.77
2022-12-12T03:20:18.048Z,8.95
2022-12-12T03:25:41.788Z,12.63
2022-12-12T03:30:47.705Z,10.82
2022-12-12T03:36:03.099Z,10.60
2022-12-12T03:41:09.560Z,8.80
2022-12-12T03:46:17.779Z,9.68
2022-12-12T03:51:28.410Z,10.20
2022-12-12T03:57:00.238Z,9.43
2022-12-12T04:02:52.082Z,9.40
2022-12-12T04:08:07.770Z,9.30
2022-12-12T04:13:32.023Z,11.00
2022-12-12T04:18:53.572Z,10.80
2022-12-12T04:24:29.323Z,12.90
2022-12-12T04:29:53.318Z,12.63
2022-12-12T04:35:04.384Z,18.38
2022-12-12T04:40:10.322Z,16.05
2022-12-12T04:45:19.529Z,13.23
2022-12-12T04:50:25.794Z,14.35
2022-12-12T04:55:33.243Z,17.90
2022-12-12T05:00:48.047Z,10.10
2022-12-12T05:06:11.266Z,10.80
2022-12-12T05:11:14.972Z,10.15
2022-12-12T05:16:19.208Z,10.75
2022-12-12T05:21:22.211Z,8.45
2022-12-12T05:26:27.615Z,5.60
2022-12-12T05:31:30.099Z,6.50
2022-12-12T05:36:32.189Z,5.68
2022-12-12T05:41:34.391Z,4.63
2022-12-12T05:46:36.502Z,5.38
2022-12-12T05:51:40.276Z,5.55
2022-12-12T05:56:42.913Z,4.40
2022-12-12T06:01:45.216Z,4.05
2022-12-12T06:06:47.608Z,7.13
2022-12-12T06:11:50.771Z,6.45
2022-12-12T06:16:53.164Z,6.68
2022-12-12T06:21:55.234Z,7.90
2022-12-12T06:26:57.542Z,7.28
2022-12-12T06:31:59.820Z,5.88
2022-12-12T06:37:02.103Z,5.90
2022-12-12T06:42:04.167Z,9.38
2022-12-12T06:47:06.620Z,14.45
2022-12-12T06:52:08.924Z,7.32
2022-12-12T06:57:34.020Z,7.00
2022-12-12T07:02:36.256Z,5.95
2022-12-12T07:07:38.568Z,5.90
2022-12-12T07:12:41.120Z,6.57
2022-12-12T07:17:43.292Z,6.10
2022-12-12T07:22:45.398Z,7.45
2022-12-12T07:27:47.549Z,7.13
2022-12-12T07:32:51.937Z,6.43
2022-12-12T07:37:54.834Z,6.60
2022-12-12T07:42:56.992Z,8.50
2022-12-12T07:47:59.143Z,9.85
2022-12-12T07:53:01.505Z,7.80
2022-12-12T07:58:03.630Z,6.75
2022-12-12T08:03:05.843Z,6.60
2022-12-12T08:08:08.119Z,6.85
2022-12-12T08:13:10.513Z,7.50
2022-12-12T08:18:12.795Z,7.18
2022-12-12T08:23:14.932Z,6.10
2022-12-12T08:28:16.949Z,6.88
2022-12-12T08:33:19.377Z,6.00
2022-12-12T08:38:22.567Z,6.20
2022-12-12T08:43:24.655Z,6.00
2022-12-12T08:48:26.866Z,5.95
2022-12-12T08:53:28.907Z,6.32
2022-12-12T08:58:35.404Z,6.18
2022-12-12T09:03:37.788Z,6.82
2022-12-12T09:08:40.885Z,5.25
2022-12-12T09:13:44.342Z,5.18
2022-12-12T09:18:48.967Z,8.70
2022-12-12T09:23:52.085Z,8.20
2022-12-12T09:28:54.461Z,6.95
2022-12-12T09:33:56.645Z,6.80
2022-12-12T09:38:58.760Z,6.70
2022-12-12T09:44:08.964Z,5.80
2022-12-12T09:49:41.556Z,7.13
2022-12-12T09:54:45.990Z,6.82
2022-12-12T10:00:03.503Z,11.23
2022-12-12T10:05:40.645Z,13.57
2022-12-12T10:10:49.783Z,17.20
2022-12-12T10:15:56.657Z,11.90
2022-12-12T10:21:03.210Z,11.82
2022-12-12T10:26:28.698Z,12.40
2022-12-12T10:31:57.356Z,22.50
2022-12-12T10:37:17.904Z,11.10
2022-12-12T10:42:35.576Z,9.50
2022-12-12T10:47:37.845Z,11.77
2022-12-12T10:52:40.020Z,13.23
2022-12-12T10:57:42.566Z,10.73
2022-12-12T11:02:45.585Z,10.27
2022-12-12T11:08:03.078Z,11.65
2022-12-12T11:13:11.102Z,13.00
2022-12-12T11:18:19.542Z,14.38
2022-12-12T11:23:26.902Z,14.35
2022-12-12T11:28:36.502Z,13.30
2022-12-12T11:33:45.778Z,13.18
2022-12-12T11:38:56.045Z,12.70
2022-12-12T11:44:01.633Z,15.20
2022-12-12T11:49:06.077Z,35.35
2022-12-12T11:54:31.667Z,12.65
2022-12-12T11:59:48.412Z,14.93
2022-12-12T12:04:55.150Z,19.77
2022-12-12T12:10:04.121Z,20.23
2022-12-12T12:15:33.669Z,16.17
2022-12-12T12:20:38.939Z,19.00
2022-12-12T12:26:05.112Z,18.20
2022-12-12T12:31:24.426Z,18.48
2022-12-12T12:36:35.883Z,15.77
2022-12-12T12:42:13.536Z,15.75
2022-12-12T12:47:41.950Z,15.43
2022-12-12T12:52:53.411Z,14.73
2022-12-12T12:57:55.864Z,15.45
2022-12-12T13:03:19.412Z,13.93
2022-12-12T13:08:43.805Z,18.42
2022-12-12T13:13:52.410Z,15.60
2022-12-12T13:19:05.450Z,19.30
2022-12-12T13:24:42.780Z,36.78
2022-12-12T13:30:01.280Z,37.72
2022-12-12T13:35:11.341Z,27.02
2022-12-12T13:40:51.422Z,29.60
2022-12-12T13:45:54.451Z,22.30
2022-12-12T13:51:28.004Z,20.38
2022-12-12T13:56:35.191Z,17.83
2022-12-12T14:01:41.207Z,20.17
2022-12-12T14:06:43.532Z,22.70
2022-12-12T14:11:46.208Z,26.58
2022-12-12T14:16:54.529Z,23.40
2022-12-12T14:21:57.707Z,25.83
2022-12-12T14:27:08.349Z,48.35
2022-12-12T14:32:14.139Z,33.47
2022-12-12T14:37:32.423Z,42.03
2022-12-12T14:43:20.522Z,51.20
2022-12-12T14:48:23.531Z,33.70
2022-12-12T14:53:32.248Z,28.10
2022-12-12T14:58:41.813Z,27.08
2022-12-12T15:03:50.159Z,24.52
2022-12-12T15:08:53.132Z,24.17
2022-12-12T15:13:58.357Z,32.13
2022-12-12T15:19:01.857Z,29.45
2022-12-12T15:24:04.782Z,49.80
2022-12-12T15:29:08.034Z,37.67
2022-12-12T15:34:43.116Z,51.65
2022-12-12T15:39:45.362Z,45.25
2022-12-12T15:44:52.083Z,38.10
2022-12-12T15:49:54.464Z,108.13
2022-12-12T15:54:59.034Z,67.90
2022-12-12T16:00:06.632Z,114.18
2022-12-12T16:05:18.604Z,99.55
2022-12-12T16:10:23.573Z,101.20
2022-12-12T16:15:38.690Z,41.40
2022-12-12T16:20:54.372Z,44.92
2022-12-12T16:25:58.819Z,67.20
2022-12-12T16:31:04.383Z,38.58
2022-12-12T16:36:09.314Z,43.55
2022-12-12T16:41:15.498Z,95.70
2022-12-12T16:46:23.990Z,155.75
2022-12-12T16:51:33.242Z,34.53
2022-12-12T16:56:35.535Z,27.02
2022-12-12T17:01:39.043Z,28.52
2022-12-12T17:06:41.345Z,26.30
2022-12-12T17:11:43.581Z,25.70
2022-12-12T17:16:46.009Z,26.88
2022-12-12T17:21:48.658Z,30.45
2022-12-12T17:26:50.805Z,35.40
2022-12-12T17:31:53.011Z,100.15
2022-12-12T17:37:00.051Z,26.05
2022-12-12T17:42:02.293Z,48.83
2022-12-12T17:47:04.405Z,34.28
2022-12-12T17:52:09.872Z,34.13
2022-12-12T17:57:11.997Z,33.65
2022-12-12T18:02:14.643Z,36.75
2022-12-12T18:07:16.992Z,28.20
2022-12-12T18:12:19.360Z,33.15
2022-12-12T18:17:22.155Z,23.98
2022-12-12T18:22:24.510Z,23.95
2022-12-12T18:27:26.813Z,23.25
2022-12-12T18:32:29.345Z,27.35
2022-12-12T18:37:31.386Z,42.30
2022-12-12T18:42:33.650Z,28.75
2022-12-12T18:47:35.883Z,28.27
2022-12-12T18:52:38.008Z,33.33
2022-12-12T18:57:40.306Z,14.07
2022-12-12T19:02:43.010Z,17.90
2022-12-12T19:07:47.119Z,13.15
2022-12-12T19:12:49.294Z,12.77
2022-12-12T19:17:51.725Z,14.68
2022-12-12T19:22:53.922Z,30.95
2022-12-12T19:27:56.092Z,10.52
2022-12-12T19:32:58.238Z,33.65
2022-12-12T19:38:00.351Z,16.80
2022-12-12T19:43:02.663Z,15.32
2022-12-12T19:48:05.520Z,22.17
2022-12-12T19:53:07.556Z,13.07
2022-12-12T19:58:09.892Z,6.53
2022-12-12T20:03:12.623Z,5.63
2022-12-12T20:08:50.377Z,9.75
2022-12-12T20:13:59.004Z,13.35
2022-12-12T20:19:01.283Z,10.05
2022-12-12T20:24:03.519Z,24.63
2022-12-12T20:29:09.463Z,5.72
2022-12-12T20:34:13.127Z,5.10
2022-12-12T20:39:17.566Z,3.17
2022-12-12T20:44:20.752Z,2.22
2022-12-12T20:49:24.443Z,1.90
2022-12-12T20:54:29.158Z,2.40
2022-12-12T20:59:31.618Z,1.55
2022-12-12T21:04:34.871Z,1.85
2022-12-12T21:09:37.444Z,1.88
2022-12-12T21:14:39.996Z,10.18
2022-12-12T21:19:42.354Z,8.50
2022-12-12T21:24:44.511Z,3.10
2022-12-12T21:29:46.799Z,4.03
2022-12-12T21:34:49.719Z,8.82
2022-12-12T21:39:53.636Z,7.55
2022-12-12T21:44:55.867Z,8.10
2022-12-12T21:49:58.221Z,7.03
2022-12-12T21:55:00.419Z,8.35
2022-12-12T22:00:02.744Z,14.20
2022-12-12T22:05:23.897Z,13.65
2022-12-12T22:10:26.131Z,7.95
2022-12-12T22:15:28.471Z,17.75
2022-12-12T22:20:30.913Z,15.65
2022-12-12T22:25:33.126Z,12.75
2022-12-12T22:30:35.534Z,11.73
2022-12-12T22:35:37.626Z,12.27
2022-12-12T22:40:39.932Z,10.80
2022-12-12T22:45:42.284Z,10.85
2022-12-12T22:50:44.947Z,14.70
2022-12-12T22:55:47.031Z,7.10
2022-12-12T23:00:49.331Z,6.07
2022-12-12T23:05:51.557Z,2.65
2022-12-12T23:10:53.969Z,3.00
2022-12-12T23:15:56.300Z,2.60
2022-12-12T23:20:58.452Z,3.72
2022-12-12T23:26:06.962Z,2.20
2022-12-12T23:31:20.284Z,6.93
2022-12-12T23:36:23.860Z,4.05
2022-12-12T23:41:27.108Z,8.77
2022-12-12T23:46:29.873Z,5.75
2022-12-12T23:51:35.010Z,10.30
2022-12-12T23:56:37.889Z,20.02
